Time;durP1;ratioP1;P1;durP2;ratioP2;P2;SDS_P1;SDS_P2;PMS_P1;PMS_P2;Temp;Humidity;BMP_temperature;BMP_pressure;BME280_temperature;BME280_humidity;BME280_pressure;Samples;Min_cycle;Max_cycle;Signal;HPM_P1;HPM_P2
2023/05/11 00:01:06;;;;;;;0.80;0.50;;;11.70;99.90;;;;;;5132828;27;20410;-70
2023/05/11 00:03:31;;;;;;;0.80;0.50;;;11.70;99.90;;;;;;5132894;27;20682;-70
2023/05/11 00:05:57;;;;;;;0.70;0.40;;;11.70;99.90;;;;;;5132476;27;20551;-69
2023/05/11 00:08:23;;;;;;;3.43;0.70;;;11.70;99.90;;;;;;5132583;27;20255;-69
2023/05/11 00:10:49;;;;;;;0.80;0.50;;;11.60;99.90;;;;;;5132248;27;20428;-69
2023/05/11 00:13:15;;;;;;;4.60;0.60;;;11.60;99.90;;;;;;5113324;27;20179;-69
2023/05/11 00:15:40;;;;;;;1.50;0.60;;;11.60;99.90;;;;;;5113352;27;20452;-70
2023/05/11 00:18:06;;;;;;;1.63;0.60;;;11.50;99.90;;;;;;5132058;27;20432;-70
2023/05/11 00:20:32;;;;;;;0.80;0.50;;;11.50;99.90;;;;;;5131875;27;20589;-69
2023/05/11 00:22:58;;;;;;;0.80;0.60;;;11.60;99.90;;;;;;5131923;27;20423;-70
2023/05/11 00:25:24;;;;;;;1.57;0.90;;;11.60;99.90;;;;;;5132037;27;20286;-70
2023/05/11 00:27:49;;;;;;;0.80;0.50;;;11.60;99.90;;;;;;5132049;27;20271;-70
2023/05/11 00:30:15;;;;;;;0.80;0.50;;;11.60;99.90;;;;;;5131981;27;20483;-70
2023/05/11 00:32:42;;;;;;;1.20;0.83;;;11.60;99.90;;;;;;5131788;27;20216;-70
2023/05/11 00:35:08;;;;;;;1.10;0.60;;;11.80;99.90;;;;;;5131919;27;20475;-70
2023/05/11 00:37:34;;;;;;;0.80;0.50;;;11.70;99.90;;;;;;5113274;27;20894;-70
2023/05/11 00:40:00;;;;;;;1.20;0.70;;;11.70;99.90;;;;;;5131670;27;20452;-70
2023/05/11 00:42:25;;;;;;;1.67;0.70;;;11.70;99.90;;;;;;5130868;27;20201;-70
2023/05/11 00:44:51;;;;;;;0.80;0.50;;;11.70;99.90;;;;;;5131056;27;20210;-70
2023/05/11 00:47:16;;;;;;;0.93;0.80;;;11.60;99.90;;;;;;5130900;27;20190;-70
2023/05/11 00:49:42;;;;;;;0.80;0.50;;;11.60;99.90;;;;;;5131060;27;20256;-70
2023/05/11 00:52:08;;;;;;;0.70;0.50;;;11.60;99.90;;;;;;5130979;27;20222;-72
2023/05/11 00:54:35;;;;;;;0.80;0.50;;;11.60;99.90;;;;;;5130841;27;20912;-70
2023/05/11 00:57:01;;;;;;;1.63;0.70;;;11.50;99.90;;;;;;5130821;27;20199;-70
2023/05/11 00:59:27;;;;;;;0.80;0.60;;;11.40;99.90;;;;;;5130731;27;20421;-70
2023/05/11 01:01:53;;;;;;;0.97;0.63;;;11.50;99.90;;;;;;5130660;27;20464;-70
2023/05/11 01:04:19;;;;;;;0.80;0.60;;;11.50;99.90;;;;;;5112039;27;20444;-69
2023/05/11 01:06:59;;;;;;;1.43;0.50;;;11.70;99.90;;;;;;5130957;27;20523;-70
2023/05/11 01:10:07;;;;;;;1.43;0.80;;;11.50;99.90;;;;;;5130399;27;20400;-70
2023/05/11 01:12:39;;;;;;;2.27;0.70;;;11.50;99.90;;;;;;5048872;27;20425;-70
2023/05/11 01:15:28;;;;;;;3.23;1.00;;;11.40;99.90;;;;;;5130531;27;20412;-70
2023/05/11 01:18:15;;;;;;;5.03;0.80;;;11.50;99.90;;;;;;5130788;27;20410;-70
2023/05/11 01:20:45;;;;;;;2.10;0.80;;;11.50;99.90;;;;;;5130828;27;20420;-70
2023/05/11 01:23:17;;;;;;;0.90;0.60;;;11.40;99.90;;;;;;5130870;27;20421;-69
2023/05/11 01:26:34;;;;;;;1.27;0.70;;;11.40;99.90;;;;;;5130820;27;21054;-70
2023/05/11 01:29:17;;;;;;;1.40;0.60;;;11.40;99.90;;;;;;5087619;27;20933;-69
2023/05/11 01:31:46;;;;;;;2.70;0.70;;;11.50;99.90;;;;;;5130621;27;20410;-70
2023/05/11 01:34:20;;;;;;;0.80;0.50;;;11.50;99.90;;;;;;5111445;27;20470;-70
2023/05/11 01:36:53;;;;;;;0.70;0.50;;;11.50;99.90;;;;;;5130240;27;20449;-70
2023/05/11 01:39:29;;;;;;;2.27;0.67;;;11.50;99.90;;;;;;5130793;27;20412;-69
2023/05/11 01:41:57;;;;;;;1.00;0.60;;;11.50;99.90;;;;;;5129957;27;20458;-70
2023/05/11 01:44:26;;;;;;;1.07;0.60;;;11.40;99.90;;;;;;5111937;27;20943;-70
2023/05/11 01:46:53;;;;;;;0.80;0.50;;;11.40;99.90;;;;;;5130035;27;20466;-70
2023/05/11 01:49:21;;;;;;;0.80;0.50;;;11.40;99.90;;;;;;5130148;27;20444;-69
2023/05/11 01:51:48;;;;;;;3.87;0.70;;;11.30;99.90;;;;;;5111757;27;20504;-70
2023/05/11 01:54:16;;;;;;;2.30;0.70;;;11.40;99.90;;;;;;5130304;27;20454;-69
2023/05/11 01:56:43;;;;;;;3.30;0.60;;;11.40;99.90;;;;;;5130351;27;20453;-70
2023/05/11 01:59:10;;;;;;;0.90;0.67;;;11.40;99.90;;;;;;5130335;27;20429;-70
2023/05/11 02:01:38;;;;;;;1.00;0.63;;;11.40;99.90;;;;;;5130332;27;20429;-70
2023/05/11 02:04:04;;;;;;;1.67;0.60;;;11.50;99.90;;;;;;5130026;27;20863;-69
2023/05/11 02:06:31;;;;;;;2.27;0.60;;;11.50;99.90;;;;;;5129946;27;20975;-70
2023/05/11 02:08:58;;;;;;;0.90;0.60;;;11.50;99.90;;;;;;5130060;27;20425;-69
2023/05/11 02:11:26;;;;;;;0.87;0.60;;;11.50;99.90;;;;;;5130352;27;20960;-70
2023/05/11 02:13:53;;;;;;;0.80;0.60;;;11.50;99.90;;;;;;5130019;27;20444;-69
2023/05/11 02:16:19;;;;;;;2.60;0.63;;;11.50;99.90;;;;;;5130029;27;21005;-69
2023/05/11 02:18:46;;;;;;;0.80;0.50;;;11.50;99.90;;;;;;5130119;27;20421;-69
2023/05/11 02:21:14;;;;;;;1.73;0.70;;;11.40;99.90;;;;;;5130971;27;20519;-70
2023/05/11 02:23:42;;;;;;;0.80;0.50;;;11.40;99.90;;;;;;5131643;28;20508;-69
2023/05/11 02:26:09;;;;;;;0.80;0.57;;;11.40;99.90;;;;;;5131693;27;20905;-69
2023/05/11 02:28:35;;;;;;;5.93;0.80;;;11.40;99.90;;;;;;5131425;28;20463;-70
2023/05/11 02:31:06;;;;;;;0.90;0.67;;;11.30;99.90;;;;;;5096054;28;20453;-70
2023/05/11 02:33:35;;;;;;;2.80;0.60;;;11.40;99.90;;;;;;5131252;28;20417;-70
2023/05/11 02:36:01;;;;;;;0.80;0.70;;;11.40;99.90;;;;;;5112336;28;20452;-70
2023/05/11 02:38:33;;;;;;;0.80;0.70;;;11.20;99.90;;;;;;5130895;28;20468;-70
2023/05/11 02:41:03;;;;;;;1.27;0.60;;;11.30;99.90;;;;;;5131181;28;20476;-70
2023/05/11 02:43:34;;;;;;;0.80;0.60;;;11.30;99.90;;;;;;5132259;28;20498;-70
2023/05/11 02:46:03;;;;;;;1.57;0.60;;;11.20;99.90;;;;;;5113873;27;20473;-70
2023/05/11 02:48:41;;;;;;;1.10;0.70;;;11.20;99.90;;;;;;5132363;28;20921;-69
2023/05/11 02:51:10;;;;;;;1.00;0.60;;;11.20;99.90;;;;;;5114375;28;20928;-70
2023/05/11 02:53:38;;;;;;;0.77;0.60;;;11.20;99.90;;;;;;5132247;27;20456;-70
2023/05/11 02:56:05;;;;;;;2.50;0.70;;;11.30;99.90;;;;;;5132151;27;20428;-70
2023/05/11 02:58:30;;;;;;;1.63;0.70;;;11.40;99.90;;;;;;5132144;28;20424;-70
2023/05/11 03:00:57;;;;;;;1.40;0.67;;;11.30;99.90;;;;;;5113439;28;20420;-70
2023/05/11 03:03:23;;;;;;;1.20;0.80;;;11.30;99.90;;;;;;5132015;28;20431;-70
2023/05/11 03:05:50;;;;;;;0.90;0.60;;;11.30;99.90;;;;;;5132551;27;20502;-70
2023/05/11 03:08:15;;;;;;;0.80;0.60;;;11.30;99.90;;;;;;5113528;28;20520;-70
2023/05/11 03:10:42;;;;;;;0.90;0.60;;;11.40;99.90;;;;;;5132009;28;20445;-71
2023/05/11 03:13:08;;;;;;;2.53;0.80;;;11.30;99.90;;;;;;5132531;27;20207;-70
2023/05/11 03:15:35;;;;;;;0.90;0.70;;;11.30;99.90;;;;;;5131529;27;20447;-70
2023/05/11 03:18:02;;;;;;;2.03;0.60;;;11.40;99.90;;;;;;5131441;28;20461;-70
2023/05/11 03:20:29;;;;;;;0.80;0.80;;;11.30;99.90;;;;;;5112783;28;20483;-70
2023/05/11 03:22:55;;;;;;;1.13;0.77;;;11.30;99.90;;;;;;5131114;28;20418;-70
2023/05/11 03:25:23;;;;;;;2.50;0.90;;;11.20;99.90;;;;;;5112290;28;20485;-70
2023/05/11 03:27:50;;;;;;;3.60;0.70;;;11.30;99.90;;;;;;5131095;28;20415;-70
2023/05/11 03:30:16;;;;;;;5.43;0.83;;;11.30;99.90;;;;;;5112592;28;20920;-70
2023/05/11 03:32:42;;;;;;;2.40;1.00;;;11.30;99.90;;;;;;5133496;27;20429;-70
2023/05/11 03:35:08;;;;;;;1.10;0.63;;;11.30;99.90;;;;;;5134384;27;20444;-70
2023/05/11 03:37:37;;;;;;;2.90;0.80;;;11.30;99.90;;;;;;5114094;27;20263;-70
2023/05/11 03:40:04;;;;;;;1.17;0.70;;;11.10;99.90;;;;;;5132555;27;20445;-70
2023/05/11 03:42:31;;;;;;;1.40;0.60;;;11.30;99.90;;;;;;5132095;27;20520;-70
2023/05/11 03:44:59;;;;;;;2.10;0.90;;;11.30;99.90;;;;;;5132135;27;20581;-70
2023/05/11 03:47:28;;;;;;;3.63;0.97;;;11.20;99.90;;;;;;5132067;27;20411;-70
2023/05/11 03:49:55;;;;;;;1.00;0.90;;;11.30;99.90;;;;;;5132042;27;20934;-70
2023/05/11 03:52:22;;;;;;;3.53;0.90;;;11.20;99.90;;;;;;5132071;27;20411;-71
2023/05/11 03:54:48;;;;;;;1.90;0.67;;;11.30;99.90;;;;;;5113674;27;20433;-70
2023/05/11 03:57:14;;;;;;;1.00;0.77;;;11.30;99.90;;;;;;5113653;27;20492;-71
2023/05/11 03:59:40;;;;;;;0.97;0.60;;;11.40;99.90;;;;;;5113616;27;20791;-70
2023/05/11 04:02:07;;;;;;;4.00;1.03;;;11.40;99.90;;;;;;5131853;27;20434;-70
2023/05/11 04:04:32;;;;;;;2.50;0.93;;;11.40;99.90;;;;;;5131857;27;20187;-70
2023/05/11 04:06:58;;;;;;;4.73;0.90;;;11.30;99.90;;;;;;5131538;27;20485;-70
2023/05/11 04:09:24;;;;;;;3.70;0.70;;;11.30;99.90;;;;;;5131738;27;20178;-70
2023/05/11 04:11:50;;;;;;;1.30;1.00;;;11.30;99.90;;;;;;5131728;27;20938;-70
2023/05/11 04:14:16;;;;;;;2.50;0.80;;;11.20;99.90;;;;;;5113301;27;20206;-69
2023/05/11 04:16:42;;;;;;;1.87;1.17;;;11.20;99.90;;;;;;5131676;27;20197;-70
2023/05/11 04:19:08;;;;;;;1.50;1.07;;;11.20;99.90;;;;;;5131852;27;20469;-70
2023/05/11 04:21:34;;;;;;;3.07;0.87;;;11.30;99.90;;;;;;5131899;27;20422;-70
2023/05/11 04:24:00;;;;;;;1.63;0.80;;;11.30;99.90;;;;;;5132156;27;20264;-69
2023/05/11 04:26:26;;;;;;;1.17;1.07;;;11.30;99.90;;;;;;5131937;27;20974;-70
2023/05/11 04:28:52;;;;;;;3.97;1.10;;;11.20;99.90;;;;;;5131822;27;20422;-70
2023/05/11 04:31:17;;;;;;;1.93;0.80;;;11.20;99.90;;;;;;5130688;27;20183;-70
2023/05/11 04:33:43;;;;;;;1.00;0.90;;;11.30;99.90;;;;;;5112076;27;20233;-69
2023/05/11 04:36:08;;;;;;;1.10;0.93;;;11.30;99.90;;;;;;5130245;27;20745;-70
2023/05/11 04:38:34;;;;;;;2.00;0.80;;;11.20;99.90;;;;;;5130428;27;20234;-70
2023/05/11 04:41:07;;;;;;;1.03;0.93;;;11.20;99.90;;;;;;5129846;27;20233;-70
2023/05/11 04:43:33;;;;;;;1.47;1.00;;;11.30;99.90;;;;;;5110504;27;20310;-70
2023/05/11 04:45:59;;;;;;;1.00;0.90;;;11.30;99.90;;;;;;5111105;27;20514;-70
2023/05/11 04:48:25;;;;;;;2.93;0.90;;;11.20;99.90;;;;;;5129993;27;20414;-69
2023/05/11 04:50:52;;;;;;;0.80;0.80;;;11.20;99.90;;;;;;5130413;27;20530;-69
2023/05/11 04:53:18;;;;;;;0.93;0.80;;;11.20;99.90;;;;;;5130015;27;20978;-69
2023/05/11 04:55:44;;;;;;;4.70;0.90;;;11.20;99.90;;;;;;5129968;27;20444;-69
2023/05/11 04:58:09;;;;;;;1.00;0.90;;;11.20;99.90;;;;;;5111859;27;20183;-70
2023/05/11 05:00:35;;;;;;;2.17;0.87;;;11.30;99.90;;;;;;5130249;27;20620;-69
2023/05/11 05:03:01;;;;;;;1.13;0.80;;;11.20;99.90;;;;;;5129792;27;20600;-69
2023/05/11 05:05:27;;;;;;;5.27;1.10;;;11.40;99.90;;;;;;5129710;27;20219;-70
2023/05/11 05:07:52;;;;;;;1.00;0.80;;;11.40;99.90;;;;;;5129496;27;20194;-70
2023/05/11 05:10:18;;;;;;;1.67;1.10;;;11.30;99.90;;;;;;5129553;27;20206;-69
2023/05/11 05:12:43;;;;;;;1.20;1.00;;;11.30;99.90;;;;;;5111139;27;20272;-69
2023/05/11 05:15:10;;;;;;;9.50;7.33;;;11.40;99.90;;;;;;5111102;27;20340;-69
2023/05/11 05:17:35;;;;;;;1.43;1.33;;;11.40;99.90;;;;;;5129515;27;20186;-70
2023/05/11 05:20:03;;;;;;;2.47;0.90;;;11.30;99.90;;;;;;5129542;27;21060;-69
2023/05/11 05:22:28;;;;;;;2.60;0.90;;;11.40;99.90;;;;;;5129719;27;20219;-69
2023/05/11 05:24:54;;;;;;;1.27;1.10;;;11.40;99.90;;;;;;5129477;27;20860;-69
2023/05/11 05:27:20;;;;;;;1.73;1.20;;;11.40;99.90;;;;;;5111205;27;20599;-69
2023/05/11 05:29:45;;;;;;;1.10;0.97;;;11.40;99.90;;;;;;5111114;27;20183;-69
2023/05/11 05:32:11;;;;;;;5.67;1.07;;;11.40;99.90;;;;;;5129578;27;20673;-69
2023/05/11 05:34:36;;;;;;;3.30;0.80;;;11.40;99.90;;;;;;5129648;27;20935;-69
2023/05/11 05:37:02;;;;;;;5.33;0.90;;;11.40;99.90;;;;;;5129461;27;20299;-69
2023/05/11 05:39:28;;;;;;;2.40;1.07;;;11.50;99.90;;;;;;5129468;27;20248;-68
2023/05/11 05:41:53;;;;;;;3.87;1.17;;;11.50;99.90;;;;;;5128600;27;20222;-70
2023/05/11 05:44:19;;;;;;;2.10;1.07;;;11.60;99.90;;;;;;5129134;27;20761;-69
2023/05/11 05:46:45;;;;;;;1.90;0.80;;;11.60;99.90;;;;;;5128669;27;20211;-69
2023/05/11 05:49:10;;;;;;;1.00;0.73;;;11.60;99.90;;;;;;5128988;27;20276;-69
2023/05/11 05:51:36;;;;;;;1.57;1.20;;;11.70;99.90;;;;;;5110575;27;20634;-69
2023/05/11 05:54:02;;;;;;;1.60;1.03;;;11.60;99.90;;;;;;5128846;27;20242;-69
2023/05/11 05:56:27;;;;;;;1.67;0.77;;;11.70;99.90;;;;;;5128345;27;20265;-69
2023/05/11 05:58:53;;;;;;;0.83;0.73;;;11.80;99.90;;;;;;5109990;27;20198;-71
2023/05/11 06:01:18;;;;;;;2.87;1.03;;;11.80;99.90;;;;;;5109836;27;20255;-69
2023/05/11 06:03:44;;;;;;;1.43;1.23;;;11.80;99.90;;;;;;5128469;27;20209;-69
2023/05/11 06:06:10;;;;;;;2.70;1.10;;;11.90;99.90;;;;;;5128174;27;20262;-69
2023/05/11 06:08:36;;;;;;;1.93;1.00;;;11.90;99.90;;;;;;5109419;27;20429;-69
2023/05/11 06:11:02;;;;;;;1.20;1.10;;;11.90;99.90;;;;;;5128158;27;20502;-69
2023/05/11 06:13:28;;;;;;;1.00;0.87;;;11.80;99.90;;;;;;5109661;27;20425;-70
2023/05/11 06:15:53;;;;;;;1.83;1.10;;;11.90;99.90;;;;;;5127884;27;20289;-70
2023/05/11 06:18:19;;;;;;;1.17;1.07;;;11.90;99.90;;;;;;5128022;27;20592;-71
2023/05/11 06:20:44;;;;;;;1.87;0.90;;;11.90;99.90;;;;;;5109450;27;20556;-70
2023/05/11 06:23:10;;;;;;;1.07;0.97;;;11.90;99.90;;;;;;5127934;27;20194;-70
2023/05/11 06:25:36;;;;;;;1.30;0.93;;;11.90;99.90;;;;;;5127586;27;20315;-70
2023/05/11 06:28:02;;;;;;;3.37;1.10;;;11.90;99.90;;;;;;5109731;28;20191;-70
2023/05/11 06:30:28;;;;;;;10.40;1.27;;;11.80;99.90;;;;;;5127949;27;20179;-70
2023/05/11 06:32:54;;;;;;;4.47;1.43;;;11.90;99.90;;;;;;5109450;28;20732;-69
2023/05/11 06:35:21;;;;;;;4.00;0.90;;;11.90;99.90;;;;;;5127906;27;20503;-70
2023/05/11 06:37:46;;;;;;;1.40;0.90;;;11.90;99.90;;;;;;5127874;28;20465;-69
2023/05/11 06:40:14;;;;;;;1.20;0.80;;;11.90;99.90;;;;;;5109284;28;20988;-71
2023/05/11 06:42:40;;;;;;;1.10;0.90;;;12.00;99.90;;;;;;5109843;28;20194;-70
2023/05/11 06:45:07;;;;;;;1.63;1.13;;;12.00;99.90;;;;;;5127543;27;20461;-70
2023/05/11 06:47:32;;;;;;;2.33;1.30;;;12.00;99.90;;;;;;5109364;28;20421;-71
2023/05/11 06:49:58;;;;;;;1.37;1.17;;;12.00;99.90;;;;;;5128043;28;20441;-70
2023/05/11 06:52:23;;;;;;;2.50;1.53;;;12.00;99.90;;;;;;5127923;28;20740;-70
2023/05/11 06:54:49;;;;;;;4.23;1.10;;;12.00;99.90;;;;;;5108959;27;20622;-70
2023/05/11 06:57:15;;;;;;;2.50;0.90;;;12.00;99.90;;;;;;5127888;27;20176;-70
2023/05/11 06:59:41;;;;;;;1.73;1.10;;;12.00;99.90;;;;;;5127994;27;20629;-70
2023/05/11 07:02:06;;;;;;;1.80;1.17;;;12.00;99.90;;;;;;5109334;28;20187;-69
2023/05/11 07:04:32;;;;;;;1.77;1.10;;;12.00;99.90;;;;;;5109127;28;20426;-69
2023/05/11 07:06:58;;;;;;;1.33;1.10;;;12.00;99.90;;;;;;5129921;27;20266;-70
2023/05/11 07:09:23;;;;;;;1.90;1.20;;;12.00;99.90;;;;;;5131492;27;20230;-70
2023/05/11 07:11:50;;;;;;;1.07;0.93;;;12.00;99.90;;;;;;5131514;27;20287;-69
2023/05/11 07:14:16;;;;;;;9.07;1.40;;;12.00;99.90;;;;;;5131481;27;20184;-69
2023/05/11 07:16:42;;;;;;;4.43;1.70;;;11.90;99.90;;;;;;5131779;27;20448;-69
2023/05/11 07:19:08;;;;;;;1.53;1.27;;;12.00;99.90;;;;;;5131068;27;20656;-69
2023/05/11 07:21:37;;;;;;;1.57;1.30;;;12.00;99.90;;;;;;5131162;27;20208;-69
2023/05/11 07:24:03;;;;;;;1.40;1.27;;;12.00;99.90;;;;;;5131275;27;20907;-71
2023/05/11 07:26:29;;;;;;;1.57;1.10;;;12.00;99.90;;;;;;5131051;27;20469;-70
2023/05/11 07:28:55;;;;;;;2.50;1.40;;;12.10;99.90;;;;;;5131131;27;20173;-70
2023/05/11 07:31:21;;;;;;;1.50;1.40;;;12.00;99.90;;;;;;5131288;27;20429;-70
2023/05/11 07:33:47;;;;;;;2.13;1.20;;;12.00;99.90;;;;;;5131133;27;20271;-70
2023/05/11 07:36:13;;;;;;;3.37;1.03;;;12.10;99.90;;;;;;5131176;27;20544;-70
2023/05/11 07:38:39;;;;;;;1.30;1.13;;;12.10;99.90;;;;;;5130880;27;20413;-70
2023/05/11 07:41:04;;;;;;;3.17;1.67;;;12.10;99.90;;;;;;5112259;27;20460;-70
2023/05/11 07:43:30;;;;;;;2.10;2.00;;;12.20;99.90;;;;;;5131048;27;20268;-70
2023/05/11 07:45:55;;;;;;;3.60;2.20;;;12.20;99.90;;;;;;5130643;27;20231;-70
2023/05/11 07:48:21;;;;;;;3.30;2.27;;;12.20;99.90;;;;;;5130688;27;20223;-70
2023/05/11 07:50:48;;;;;;;3.10;1.97;;;12.30;99.90;;;;;;5130628;27;20223;-70
2023/05/11 07:53:14;;;;;;;1.73;1.63;;;12.30;99.90;;;;;;5111849;27;20190;-70
2023/05/11 07:55:40;;;;;;;7.10;2.30;;;12.30;99.90;;;;;;5111649;27;20526;-70
2023/05/11 07:58:06;;;;;;;2.00;1.80;;;12.30;99.90;;;;;;5130423;27;20912;-70
2023/05/11 08:00:32;;;;;;;2.07;1.70;;;12.30;99.90;;;;;;5130357;27;20219;-70
2023/05/11 08:02:57;;;;;;;2.13;1.60;;;12.30;99.90;;;;;;5130631;27;20991;-69
2023/05/11 08:05:23;;;;;;;1.67;1.57;;;12.40;99.90;;;;;;5111075;27;20473;-70
2023/05/11 08:07:49;;;;;;;1.50;1.40;;;12.40;99.90;;;;;;5111720;27;20533;-70
2023/05/11 08:10:14;;;;;;;4.40;1.50;;;12.40;99.90;;;;;;5112123;27;20188;-69
2023/05/11 08:12:40;;;;;;;1.67;1.17;;;12.40;99.90;;;;;;5130052;27;20262;-70
2023/05/11 08:15:06;;;;;;;2.10;1.50;;;12.40;99.90;;;;;;5130144;27;20188;-70
2023/05/11 08:17:33;;;;;;;1.20;1.10;;;12.40;99.90;;;;;;5110319;28;20195;-70
2023/05/11 08:19:59;;;;;;;3.20;1.60;;;12.60;99.90;;;;;;5130381;27;20418;-70
2023/05/11 08:22:24;;;;;;;3.27;1.50;;;12.50;99.90;;;;;;5111338;27;20979;-70
2023/05/11 08:24:50;;;;;;;1.57;1.30;;;12.60;99.90;;;;;;5129875;27;20675;-70
2023/05/11 08:27:16;;;;;;;7.10;1.47;;;12.60;99.90;;;;;;5116890;27;20238;-69
2023/05/11 08:29:41;;;;;;;1.70;1.23;;;12.70;99.90;;;;;;5136046;27;20196;-70
2023/05/11 08:32:07;;;;;;;1.20;1.10;;;12.80;99.90;;;;;;5134516;27;20176;-70
2023/05/11 08:34:33;;;;;;;1.20;0.90;;;12.80;99.90;;;;;;5133275;27;20198;-69
2023/05/11 08:37:00;;;;;;;2.43;0.97;;;12.80;99.90;;;;;;5115036;27;20209;-69
2023/05/11 08:39:26;;;;;;;2.40;1.10;;;12.80;99.90;;;;;;5133415;27;20741;-69
2023/05/11 08:41:54;;;;;;;1.67;0.90;;;12.90;99.90;;;;;;5132526;27;21091;-70
2023/05/11 08:44:21;;;;;;;1.00;0.90;;;12.90;99.90;;;;;;5132105;27;21147;-70
2023/05/11 08:46:51;;;;;;;0.90;0.80;;;12.90;99.90;;;;;;5132084;27;20983;-69
2023/05/11 08:49:17;;;;;;;1.23;0.97;;;12.90;99.90;;;;;;5131815;27;20455;-70
2023/05/11 08:51:44;;;;;;;1.67;1.10;;;12.90;99.90;;;;;;5131019;27;20440;-69
2023/05/11 08:54:10;;;;;;;1.30;1.13;;;12.90;99.90;;;;;;5130949;27;20421;-69
2023/05/11 08:56:36;;;;;;;4.60;1.93;;;12.80;99.90;;;;;;5130221;27;20436;-69
2023/05/11 08:59:03;;;;;;;1.33;1.10;;;12.90;99.90;;;;;;5129650;27;20602;-70
2023/05/11 09:01:30;;;;;;;1.50;1.40;;;12.90;99.90;;;;;;5129480;27;20508;-70
2023/05/11 09:03:59;;;;;;;2.57;1.27;;;12.90;99.90;;;;;;5110806;27;20498;-69
2023/05/11 09:06:26;;;;;;;1.70;1.40;;;13.00;99.90;;;;;;5129110;27;20472;-69
2023/05/11 09:08:52;;;;;;;4.00;1.57;;;13.00;99.90;;;;;;5129593;27;20482;-69
2023/05/11 09:11:18;;;;;;;3.17;1.47;;;12.90;99.90;;;;;;5129959;27;20910;-69
2023/05/11 09:13:44;;;;;;;1.43;0.97;;;12.90;99.90;;;;;;5129910;27;20463;-69
2023/05/11 09:16:10;;;;;;;1.43;1.00;;;12.80;99.90;;;;;;5129690;27;20968;-70
2023/05/11 09:18:44;;;;;;;1.87;1.10;;;12.80;99.90;;;;;;5111303;27;20417;-69
2023/05/11 09:21:11;;;;;;;1.97;0.80;;;12.70;99.90;;;;;;5129742;27;20196;-69
2023/05/11 09:23:37;;;;;;;4.63;1.47;;;12.70;99.90;;;;;;5129555;27;20815;-70
2023/05/11 09:26:03;;;;;;;2.60;1.63;;;12.60;99.90;;;;;;5110456;27;20512;-70
2023/05/11 09:28:28;;;;;;;2.30;1.27;;;12.50;99.90;;;;;;5129312;27;20425;-69
2023/05/11 09:30:54;;;;;;;2.43;1.10;;;12.50;99.90;;;;;;5129235;27;20192;-69
2023/05/11 09:33:24;;;;;;;1.10;1.00;;;12.40;99.90;;;;;;5129212;27;20259;-69
2023/05/11 09:35:50;;;;;;;1.50;1.33;;;12.50;99.90;;;;;;5110490;27;20207;-69
2023/05/11 09:38:19;;;;;;;2.40;1.60;;;12.50;99.90;;;;;;5129261;27;20516;-70
2023/05/11 09:41:03;;;;;;;2.43;1.20;;;12.40;99.90;;;;;;5109964;27;20510;-70
2023/05/11 09:43:29;;;;;;;11.87;1.20;;;12.60;99.90;;;;;;5128871;27;20475;-70
2023/05/11 09:46:00;;;;;;;3.83;1.40;;;12.60;99.90;;;;;;5128351;27;21059;-70
2023/05/11 09:48:31;;;;;;;1.40;1.30;;;12.70;99.90;;;;;;5110127;27;20802;-70
2023/05/11 09:51:07;;;;;;;1.60;1.50;;;12.70;99.90;;;;;;5093601;27;21210;-70
2023/05/11 09:53:41;;;;;;;2.90;1.40;;;12.60;99.90;;;;;;5110385;27;20413;-69
2023/05/11 09:56:07;;;;;;;1.23;1.10;;;12.70;99.90;;;;;;5128403;27;21044;-69
2023/05/11 09:58:50;;;;;;;3.20;1.20;;;12.80;99.90;;;;;;5128750;27;20425;-70
2023/05/11 10:01:17;;;;;;;1.43;1.23;;;12.80;99.90;;;;;;5109878;27;20446;-70
2023/05/11 10:03:52;;;;;;;3.20;1.40;;;12.90;99.90;;;;;;5128188;27;20422;-69
2023/05/11 10:06:18;;;;;;;2.57;1.60;;;12.90;99.90;;;;;;5109574;27;20921;-69
2023/05/11 10:08:44;;;;;;;1.57;1.30;;;12.90;99.90;;;;;;5128217;27;20414;-69
2023/05/11 10:11:10;;;;;;;1.40;1.30;;;13.00;99.90;;;;;;5128310;27;20414;-70
2023/05/11 10:13:36;;;;;;;4.57;2.00;;;13.00;99.90;;;;;;5128451;27;20264;-69
2023/05/11 10:16:04;;;;;;;2.27;1.50;;;13.00;99.90;;;;;;5128254;27;20446;-70
2023/05/11 10:18:32;;;;;;;2.43;1.23;;;12.90;99.90;;;;;;5127994;27;20438;-70
2023/05/11 10:20:59;;;;;;;1.90;1.53;;;12.90;99.90;;;;;;5128122;27;20433;-69
2023/05/11 10:23:25;;;;;;;1.63;1.13;;;12.80;99.90;;;;;;5128055;27;20425;-69
2023/05/11 10:25:52;;;;;;;2.43;1.07;;;12.90;99.90;;;;;;5128197;27;20564;-68
2023/05/11 10:28:19;;;;;;;2.17;1.10;;;13.00;99.90;;;;;;5128495;28;20430;-70
2023/05/11 10:30:46;;;;;;;1.17;0.80;;;13.10;99.90;;;;;;5110284;28;20424;-68
2023/05/11 10:33:12;;;;;;;2.20;0.90;;;13.10;99.90;;;;;;5128478;28;20836;-70
2023/05/11 10:35:38;;;;;;;1.33;0.80;;;13.10;99.90;;;;;;5128439;27;20442;-69
2023/05/11 10:38:05;;;;;;;2.30;1.33;;;13.10;99.90;;;;;;5128561;28;20936;-70
2023/05/11 10:40:39;;;;;;;1.17;1.07;;;13.20;99.90;;;;;;5129310;27;20746;-69
2023/05/11 10:43:21;;;;;;;2.80;1.40;;;13.10;99.90;;;;;;5132996;27;20434;-69
2023/05/11 10:46:07;;;;;;;2.50;1.20;;;13.20;99.90;;;;;;5132686;27;20460;-69
2023/05/11 10:48:56;;;;;;;1.73;1.50;;;13.10;99.90;;;;;;5132807;27;20437;-69
2023/05/11 10:51:49;;;;;;;6.40;1.90;;;13.10;99.90;;;;;;5113619;27;20871;-70
2023/05/11 10:54:18;;;;;;;2.40;1.17;;;13.20;99.90;;;;;;5131744;27;20794;-68
2023/05/11 10:56:59;;;;;;;1.83;1.57;;;13.10;99.90;;;;;;5113138;27;20441;-69
2023/05/11 10:59:34;;;;;;;2.80;1.03;;;13.20;99.90;;;;;;5131776;27;20410;-70
2023/05/11 11:02:00;;;;;;;1.50;1.17;;;13.20;99.90;;;;;;5132029;27;20398;-69
2023/05/11 11:04:43;;;;;;;1.80;1.13;;;13.10;99.90;;;;;;5095951;27;20469;-70
2023/05/11 11:07:10;;;;;;;2.03;1.33;;;13.20;99.90;;;;;;5131521;27;20733;-70
2023/05/11 11:09:59;;;;;;;2.83;1.53;;;13.10;99.90;;;;;;5131558;27;20417;-69
2023/05/11 11:12:28;;;;;;;3.83;1.70;;;13.20;99.90;;;;;;5131884;27;20409;-70
2023/05/11 11:14:59;;;;;;;1.17;1.07;;;13.10;99.90;;;;;;5131866;27;20428;-70
2023/05/11 11:17:30;;;;;;;4.90;1.13;;;13.00;99.90;;;;;;5131882;27;20414;-70
2023/05/11 11:20:03;;;;;;;2.30;1.00;;;13.00;99.90;;;;;;5132019;27;20836;-69
2023/05/11 11:22:35;;;;;;;1.40;1.23;;;12.90;99.90;;;;;;5132017;27;20872;-69
2023/05/11 11:25:39;;;;;;;2.50;1.30;;;12.90;99.90;;;;;;5113206;27;20577;-69
2023/05/11 11:28:05;;;;;;;1.20;1.10;;;12.90;99.90;;;;;;5093305;27;20998;-69
2023/05/11 11:30:31;;;;;;;2.47;1.27;;;12.90;99.90;;;;;;5113745;27;20510;-68
2023/05/11 11:33:11;;;;;;;1.00;0.87;;;12.90;99.90;;;;;;5113629;27;20207;-69
2023/05/11 11:35:40;;;;;;;2.17;1.50;;;13.00;99.90;;;;;;5131658;27;20821;-69
2023/05/11 11:38:10;;;;;;;1.67;1.50;;;13.10;99.90;;;;;;5132153;27;20929;-68
2023/05/11 11:40:40;;;;;;;2.13;1.10;;;13.10;99.90;;;;;;5131768;27;20423;-69
2023/05/11 11:43:16;;;;;;;2.10;1.13;;;13.10;99.90;;;;;;5131312;27;20417;-69
2023/05/11 11:45:56;;;;;;;1.10;1.00;;;13.00;99.90;;;;;;5131280;27;20476;-70
2023/05/11 11:48:39;;;;;;;3.00;1.10;;;12.90;99.90;;;;;;5112308;27;20529;-69
2023/05/11 11:51:12;;;;;;;3.47;1.60;;;13.00;99.90;;;;;;5112274;27;20908;-70
2023/05/11 11:53:39;;;;;;;1.83;1.60;;;13.00;99.90;;;;;;5130613;27;20500;-70
2023/05/11 11:56:28;;;;;;;2.37;1.30;;;13.00;99.90;;;;;;5130661;27;20456;-70
2023/05/11 11:59:02;;;;;;;1.47;1.37;;;13.00;99.90;;;;;;5117246;27;20441;-70
2023/05/11 12:01:34;;;;;;;2.80;1.67;;;13.00;99.90;;;;;;5112333;27;20469;-69
2023/05/11 12:04:03;;;;;;;1.63;1.53;;;13.10;99.90;;;;;;5130673;27;20425;-70
2023/05/11 12:06:38;;;;;;;2.53;2.33;;;13.10;99.90;;;;;;5130669;27;20470;-70
2023/05/11 12:09:06;;;;;;;2.50;1.97;;;13.10;99.90;;;;;;5131386;27;20836;-69
2023/05/11 12:11:33;;;;;;;2.30;1.80;;;13.20;99.90;;;;;;5131164;27;20964;-69
2023/05/11 12:13:59;;;;;;;2.47;2.27;;;13.30;99.90;;;;;;5112458;27;20421;-69
2023/05/11 12:16:25;;;;;;;6.23;2.57;;;13.20;99.90;;;;;;5130886;27;20469;-69
2023/05/11 12:19:00;;;;;;;3.83;1.93;;;13.20;99.90;;;;;;5130787;27;20426;-69
2023/05/11 12:21:33;;;;;;;3.70;2.57;;;13.20;99.90;;;;;;5130853;27;20410;-69
2023/05/11 12:24:04;;;;;;;4.97;2.83;;;13.20;99.90;;;;;;5112704;27;20427;-69
2023/05/11 12:26:31;;;;;;;2.80;2.60;;;13.20;99.90;;;;;;5131039;27;21037;-70
2023/05/11 12:29:07;;;;;;;3.40;2.73;;;13.30;99.90;;;;;;5130718;27;20971;-69
2023/05/11 12:31:38;;;;;;;6.50;2.57;;;13.10;99.90;;;;;;5111941;27;20449;-68
2023/05/11 12:34:03;;;;;;;2.47;2.30;;;13.00;99.90;;;;;;5130850;27;20899;-68
2023/05/11 12:36:30;;;;;;;5.43;2.17;;;13.00;99.90;;;;;;5130493;27;20442;-68
2023/05/11 12:38:56;;;;;;;5.83;2.67;;;12.90;99.90;;;;;;5130681;27;20173;-69
2023/05/11 12:41:22;;;;;;;2.77;2.57;;;12.80;99.90;;;;;;5130407;27;20829;-69
2023/05/11 12:43:49;;;;;;;4.30;2.23;;;12.80;99.90;;;;;;5130128;27;20785;-70
2023/05/11 12:46:16;;;;;;;2.70;2.50;;;12.80;99.90;;;;;;5129716;27;20462;-70
2023/05/11 12:48:44;;;;;;;2.03;1.83;;;12.90;99.90;;;;;;5129473;27;20426;-70
2023/05/11 12:51:10;;;;;;;2.13;1.90;;;13.00;99.90;;;;;;5110997;27;20799;-69
2023/05/11 12:53:37;;;;;;;2.20;2.10;;;13.00;99.90;;;;;;5110788;27;20419;-69